createdAt,value
2018-11-21T00:00:51.681Z,23.83
2018-11-21T00:03:21.829Z,21.23
2018-11-21T00:05:54.499Z,19.90
2018-11-21T00:08:24.921Z,23.73
2018-11-21T00:10:56.143Z,19.87
2018-11-21T00:13:26.171Z,22.20
2018-11-21T00:15:55.824Z,17.55
2018-11-21T00:18:25.829Z,20.68
2018-11-21T00:20:55.995Z,17.17
2018-11-21T00:23:26.424Z,21.20
2018-11-21T00:25:56.937Z,15.70
2018-11-21T00:28:27.118Z,20.48
2018-11-21T00:30:56.776Z,20.92
2018-11-21T00:33:29.038Z,23.22
2018-11-21T00:35:58.889Z,20.52
2018-11-21T00:38:28.749Z,16.50
2018-11-21T00:40:58.589Z,20.17
2018-11-21T00:43:28.308Z,22.10
2018-11-21T00:45:58.395Z,19.30
2018-11-21T00:48:28.456Z,20.97
2018-11-21T00:50:58.491Z,20.52
2018-11-21T00:53:30.967Z,16.27
2018-11-21T00:56:03.434Z,18.80
2018-11-21T00:58:33.798Z,22.70
2018-11-21T01:01:03.955Z,17.87
2018-11-21T01:03:34.063Z,22.85
2018-11-21T01:06:04.736Z,21.17
2018-11-21T01:08:34.791Z,21.75
2018-11-21T01:11:05.339Z,22.00
2018-11-21T01:13:34.892Z,17.02
2018-11-21T01:16:04.287Z,21.20
2018-11-21T01:18:34.770Z,19.20
2018-11-21T01:21:05.185Z,21.33
2018-11-21T01:23:36.229Z,20.92
2018-11-21T01:26:05.929Z,20.85
2018-11-21T01:28:36.333Z,20.88
2018-11-21T01:31:10.050Z,21.25
2018-11-21T01:33:41.155Z,19.27
2018-11-21T01:36:10.936Z,19.92
2018-11-21T01:38:40.406Z,18.02
2018-11-21T01:41:11.703Z,22.73
2018-11-21T01:43:42.422Z,22.05
2018-11-21T01:46:12.826Z,20.50
2018-11-21T01:48:42.344Z,17.32
2018-11-21T01:51:12.927Z,22.27
2018-11-21T01:53:42.758Z,18.40
2018-11-21T01:56:13.026Z,21.82
2018-11-21T01:58:42.784Z,21.17
2018-11-21T02:01:12.805Z,21.97
2018-11-21T02:03:42.948Z,20.32
2018-11-21T02:06:13.224Z,23.07
2018-11-21T02:08:44.390Z,13.75
2018-11-21T02:11:14.203Z,17.82
2018-11-21T02:13:44.228Z,23.40
2018-11-21T02:16:15.196Z,21.60
2018-11-21T02:18:45.574Z,24.02
2018-11-21T02:21:15.432Z,22.00
2018-11-21T02:23:45.549Z,18.82
2018-11-21T02:26:17.067Z,21.68
2018-11-21T02:28:46.874Z,22.27
2018-11-21T02:31:17.311Z,22.17
2018-11-21T02:33:47.384Z,22.42
2018-11-21T02:36:18.304Z,20.20
2018-11-21T02:38:47.872Z,20.77
2018-11-21T02:41:18.105Z,18.70
2018-11-21T02:43:47.946Z,19.80
2018-11-21T02:46:18.710Z,23.80
2018-11-21T02:48:48.974Z,16.07
2018-11-21T02:51:19.207Z,18.27
2018-11-21T02:53:49.118Z,24.23
2018-11-21T02:56:19.464Z,22.07
2018-11-21T02:58:49.395Z,23.05
2018-11-21T03:01:19.924Z,18.70
2018-11-21T03:03:50.443Z,23.00
2018-11-21T03:06:20.455Z,20.52
2018-11-21T03:08:50.107Z,22.73
2018-11-21T03:11:19.977Z,19.25
2018-11-21T03:13:50.300Z,22.93
2018-11-21T03:16:20.423Z,22.27
2018-11-21T03:18:50.965Z,21.15
2018-11-21T03:21:20.724Z,18.27
2018-11-21T03:23:50.525Z,23.25
2018-11-21T03:26:20.271Z,18.77
2018-11-21T03:28:50.794Z,24.40
2018-11-21T03:31:21.266Z,23.98
2018-11-21T03:33:57.730Z,19.60
2018-11-21T03:36:22.911Z,20.40
2018-11-21T03:38:52.667Z,19.07
2018-11-21T03:41:22.695Z,22.50
2018-11-21T03:43:54.048Z,24.05
2018-11-21T03:46:24.483Z,21.68
2018-11-21T03:48:54.289Z,20.62
2018-11-21T03:51:23.751Z,24.18
2018-11-21T03:53:53.415Z,22.48
2018-11-21T03:56:23.480Z,21.50
2018-11-21T03:58:53.407Z,25.52
2018-11-21T04:01:23.162Z,21.82
2018-11-21T04:03:53.320Z,22.90
2018-11-21T04:06:23.437Z,25.25
2018-11-21T04:08:54.854Z,17.62
2018-11-21T04:11:24.666Z,22.20
2018-11-21T04:13:54.198Z,23.62
2018-11-21T04:16:24.129Z,18.40
2018-11-21T04:18:54.798Z,22.73
2018-11-21T04:21:24.437Z,25.35
2018-11-21T04:23:54.810Z,23.85
2018-11-21T04:26:24.744Z,23.87
2018-11-21T04:28:54.463Z,25.02
2018-11-21T04:31:24.378Z,21.35
2018-11-21T04:33:54.387Z,22.37
2018-11-21T04:36:24.384Z,24.60
2018-11-21T04:38:54.038Z,20.82
2018-11-21T04:41:23.760Z,25.88
2018-11-21T04:43:53.983Z,24.25
2018-11-21T04:46:24.208Z,22.93
2018-11-21T04:48:54.420Z,25.17
2018-11-21T04:51:24.729Z,24.52
2018-11-21T04:53:55.463Z,23.77
2018-11-21T04:56:25.120Z,21.68
2018-11-21T04:58:55.979Z,23.62
2018-11-21T05:01:26.991Z,19.30
2018-11-21T05:03:57.407Z,22.67
2018-11-21T05:06:27.155Z,24.43
2018-11-21T05:08:57.402Z,23.20
2018-11-21T05:11:27.066Z,24.20
2018-11-21T05:13:57.554Z,25.25
2018-11-21T05:16:28.139Z,24.20
2018-11-21T05:18:58.524Z,25.02
2018-11-21T05:21:28.302Z,22.67
2018-11-21T05:23:58.555Z,25.95
2018-11-21T05:26:28.527Z,21.62
2018-11-21T05:28:58.210Z,23.98
2018-11-21T05:31:28.846Z,23.15
2018-11-21T05:33:58.739Z,24.90
2018-11-21T05:36:29.044Z,22.42
2018-11-21T05:38:58.496Z,24.27
2018-11-21T05:41:28.829Z,24.63
2018-11-21T05:43:58.329Z,24.92
2018-11-21T05:46:28.099Z,23.90
2018-11-21T05:48:57.588Z,25.57
2018-11-21T05:51:27.194Z,25.45
2018-11-21T05:53:57.558Z,24.10
2018-11-21T05:56:27.839Z,24.35
2018-11-21T05:58:58.237Z,23.90
2018-11-21T06:01:28.645Z,25.85
2018-11-21T06:03:58.517Z,25.00
2018-11-21T06:06:28.219Z,23.85
2018-11-21T06:08:58.088Z,24.60
2018-11-21T06:11:27.638Z,22.85
2018-11-21T06:13:58.002Z,24.57
2018-11-21T06:16:28.824Z,22.15
2018-11-21T06:18:58.662Z,23.05
2018-11-21T06:21:28.639Z,19.73
2018-11-21T06:23:58.739Z,24.82
2018-11-21T06:26:28.318Z,20.30
2018-11-21T06:28:58.600Z,18.48
2018-11-21T06:31:28.471Z,21.97
2018-11-21T06:33:58.741Z,21.80
2018-11-21T06:36:28.591Z,22.10
2018-11-21T06:38:58.547Z,26.75
2018-11-21T06:41:28.872Z,22.37
2018-11-21T06:44:00.543Z,22.87
2018-11-21T06:46:30.390Z,23.52
2018-11-21T06:49:00.811Z,26.82
2018-11-21T06:51:35.152Z,26.02
2018-11-21T06:54:01.549Z,24.80
2018-11-21T06:56:31.916Z,23.32
2018-11-21T06:59:02.236Z,26.07
2018-11-21T07:01:32.784Z,25.37
2018-11-21T07:04:03.233Z,24.55
2018-11-21T07:06:36.271Z,25.17
2018-11-21T07:09:10.445Z,25.32
2018-11-21T07:11:40.519Z,23.60
2018-11-21T07:14:10.690Z,24.40
2018-11-21T07:16:41.294Z,26.35
2018-11-21T07:19:11.720Z,24.45
2018-11-21T07:21:41.317Z,20.90
2018-11-21T07:24:11.015Z,24.37
2018-11-21T07:26:41.265Z,26.33
2018-11-21T07:29:11.624Z,23.55
2018-11-21T07:31:41.633Z,24.37
2018-11-21T07:34:11.835Z,27.90
2018-11-21T07:36:49.359Z,26.25
2018-11-21T07:39:20.094Z,24.92
2018-11-21T07:41:52.871Z,24.92
2018-11-21T07:44:23.173Z,16.10
2018-11-21T07:46:52.715Z,25.20
2018-11-21T07:49:22.594Z,24.40
2018-11-21T07:51:52.421Z,25.52
2018-11-21T07:54:22.850Z,20.23
2018-11-21T07:57:32.787Z,27.85
2018-11-21T08:00:48.806Z,27.77
2018-11-21T08:03:19.060Z,24.27
2018-11-21T08:05:53.412Z,23.83
2018-11-21T08:08:54.252Z,24.27
2018-11-21T08:11:37.468Z,25.20
2018-11-21T08:14:33.845Z,27.73
2018-11-21T08:17:22.599Z,27.30
2018-11-21T08:20:11.585Z,26.23
2018-11-21T08:23:15.090Z,21.37
2018-11-21T08:26:03.972Z,22.10
2018-11-21T08:28:34.791Z,25.25
2018-11-21T08:31:05.270Z,25.72
2018-11-21T08:33:35.198Z,26.30
2018-11-21T08:36:06.974Z,23.73
2018-11-21T08:38:36.910Z,23.18
2018-11-21T08:41:06.851Z,26.37
2018-11-21T08:43:36.575Z,26.50
2018-11-21T08:46:07.486Z,24.60
2018-11-21T08:48:38.019Z,15.95
2018-11-21T08:51:07.613Z,22.02
2018-11-21T08:53:37.635Z,25.80
2018-11-21T08:56:07.540Z,23.50
2018-11-21T08:58:37.841Z,24.55
2018-11-21T09:01:07.390Z,25.75
2018-11-21T09:03:37.395Z,23.10
2018-11-21T09:06:07.742Z,24.92
2018-11-21T09:08:37.736Z,26.93
2018-11-21T09:11:08.116Z,23.07
2018-11-21T09:13:38.920Z,24.25
2018-11-21T09:16:09.400Z,26.05
2018-11-21T09:18:40.241Z,27.20
2018-11-21T09:21:10.731Z,26.70
2018-11-21T09:23:42.246Z,25.60
2018-11-21T09:26:12.592Z,17.82
2018-11-21T09:28:43.059Z,24.75
2018-11-21T09:31:12.916Z,22.75
2018-11-21T09:33:43.161Z,23.02
2018-11-21T09:36:13.261Z,21.25
2018-11-21T09:38:43.408Z,25.08
2018-11-21T09:41:13.606Z,24.63
2018-11-21T09:43:43.470Z,25.85
2018-11-21T09:46:17.184Z,24.80
2018-11-21T09:48:43.931Z,24.05
2018-11-21T09:51:13.959Z,23.73
2018-11-21T09:53:43.976Z,25.92
2018-11-21T09:56:25.963Z,25.00
2018-11-21T09:58:55.741Z,25.35
2018-11-21T10:02:03.143Z,24.77
2018-11-21T10:04:36.498Z,25.08
2018-11-21T10:07:06.312Z,22.50
2018-11-21T10:09:40.048Z,25.32
2018-11-21T10:12:10.445Z,26.23
2018-11-21T10:14:40.308Z,25.40
2018-11-21T10:17:10.091Z,25.45
2018-11-21T10:19:40.176Z,25.95
2018-11-21T10:22:10.761Z,21.23
2018-11-21T10:24:40.569Z,21.93
2018-11-21T10:27:11.129Z,25.77
2018-11-21T10:29:40.671Z,25.00
2018-11-21T10:32:10.339Z,25.75
2018-11-21T10:34:40.053Z,25.08
2018-11-21T10:37:09.659Z,24.80
2018-11-21T10:39:39.487Z,24.75
2018-11-21T10:42:09.166Z,23.60
2018-11-21T10:44:39.915Z,24.12
2018-11-21T10:47:09.499Z,25.52
2018-11-21T10:49:39.606Z,23.38
2018-11-21T10:52:09.619Z,25.37
2018-11-21T10:54:39.695Z,23.62
2018-11-21T10:57:10.529Z,23.87
2018-11-21T10:59:43.461Z,24.75
2018-11-21T11:02:16.170Z,23.55
2018-11-21T11:05:10.079Z,26.07
2018-11-21T11:07:57.889Z,25.55
2018-11-21T11:10:45.507Z,23.83
2018-11-21T11:13:40.249Z,23.67
2018-11-21T11:16:20.877Z,24.87
2018-11-21T11:19:13.546Z,24.77
2018-11-21T11:22:08.028Z,26.02
2018-11-21T11:24:59.873Z,25.43
2018-11-21T11:27:40.644Z,25.40
2018-11-21T11:30:28.958Z,24.43
2018-11-21T11:33:37.016Z,26.10
2018-11-21T11:36:20.597Z,25.82
2018-11-21T11:39:12.365Z,24.65
2018-11-21T11:41:55.435Z,27.00
2018-11-21T11:44:51.065Z,25.00
2018-11-21T11:47:38.798Z,23.90
2018-11-21T11:50:32.302Z,22.67
2018-11-21T11:53:30.393Z,27.05
2018-11-21T11:56:17.710Z,25.55
2018-11-21T11:59:09.356Z,27.65
2018-11-21T12:01:57.125Z,28.30
2018-11-21T12:04:49.887Z,29.48
2018-11-21T12:07:47.728Z,25.45
2018-11-21T12:10:50.968Z,26.93
2018-11-21T12:13:40.600Z,27.77
2018-11-21T12:16:28.272Z,29.02
2018-11-21T12:19:09.906Z,27.37
2018-11-21T12:22:04.304Z,28.92
2018-11-21T12:24:43.011Z,28.45
2018-11-21T12:27:37.406Z,29.10
2018-11-21T12:30:27.055Z,26.97
2018-11-21T12:33:18.819Z,28.07
2018-11-21T12:36:09.179Z,28.35
2018-11-21T12:39:06.207Z,28.50
2018-11-21T12:41:54.432Z,29.15
2018-11-21T12:44:42.278Z,28.92
2018-11-21T12:47:40.891Z,28.92
2018-11-21T12:50:28.913Z,29.32
2018-11-21T12:53:08.523Z,28.57
2018-11-21T12:56:00.891Z,28.57
2018-11-21T12:58:52.415Z,30.65
2018-11-21T13:01:37.736Z,29.77
2018-11-21T13:04:29.882Z,29.95
2018-11-21T13:07:28.610Z,30.37
2018-11-21T13:10:16.612Z,29.25
2018-11-21T13:13:07.502Z,29.60
2018-11-21T13:15:56.147Z,29.35
2018-11-21T13:18:38.876Z,28.42
2018-11-21T13:21:26.627Z,31.90
2018-11-21T13:24:05.856Z,30.80
2018-11-21T13:26:53.740Z,30.10
2018-11-21T13:29:43.975Z,31.23
2018-11-21T13:32:31.269Z,31.45
2018-11-21T13:35:32.459Z,31.97
2018-11-21T13:38:31.078Z,30.62
2018-11-21T13:41:09.729Z,29.57
2018-11-21T13:43:58.611Z,30.27
2018-11-21T13:46:44.676Z,30.57
2018-11-21T13:49:21.939Z,31.42
2018-11-21T13:52:10.755Z,32.65
2018-11-21T13:54:57.529Z,27.98
2018-11-21T13:57:27.875Z,31.30
2018-11-21T13:59:58.208Z,30.70
2018-11-21T14:02:27.883Z,30.45
2018-11-21T14:04:58.634Z,30.45
2018-11-21T14:07:29.041Z,31.82
2018-11-21T14:09:59.451Z,31.50
2018-11-21T14:12:29.452Z,30.85
2018-11-21T14:14:59.619Z,33.00
2018-11-21T14:17:32.593Z,33.33
2018-11-21T14:20:02.449Z,32.75
2018-11-21T14:22:32.526Z,32.33
2018-11-21T14:25:02.231Z,31.62
2018-11-21T14:27:32.351Z,32.85
2018-11-21T14:30:02.518Z,33.18
2018-11-21T14:32:32.297Z,33.28
2018-11-21T14:35:05.827Z,32.80
2018-11-21T14:37:36.083Z,32.28
2018-11-21T14:40:10.133Z,34.18
2018-11-21T14:42:40.034Z,33.45
2018-11-21T14:45:11.846Z,33.63
2018-11-21T14:47:42.416Z,32.93
2018-11-21T14:50:17.580Z,32.30
2018-11-21T14:52:47.177Z,33.33
2018-11-21T14:55:17.863Z,34.45
2018-11-21T14:57:47.661Z,34.65
2018-11-21T15:00:19.148Z,33.75
2018-11-21T15:02:49.756Z,33.60
2018-11-21T15:05:20.203Z,31.68
2018-11-21T15:07:50.941Z,31.00
2018-11-21T15:10:20.561Z,32.70
2018-11-21T15:12:50.151Z,33.65
2018-11-21T15:15:20.362Z,35.08
2018-11-21T15:17:50.486Z,34.75
2018-11-21T15:20:22.076Z,32.50
2018-11-21T15:22:52.610Z,33.42
2018-11-21T15:25:23.250Z,32.30
2018-11-21T15:27:53.188Z,35.03
2018-11-21T15:30:24.877Z,33.45
2018-11-21T15:32:54.543Z,35.40
2018-11-21T15:35:24.842Z,32.65
2018-11-21T15:37:55.243Z,33.02
2018-11-21T15:40:26.003Z,31.33
2018-11-21T15:42:56.030Z,34.40
2018-11-21T15:45:26.451Z,35.15
2018-11-21T15:47:58.024Z,33.53
2018-11-21T15:50:28.438Z,35.70
2018-11-21T15:52:58.480Z,33.35
